Arklow Rock — PBZM — position and weather

sailwx.info

Track history (hours):
 
Tides and Currents Weather Stations Pressure Air Temp Water Temp Dewpoint Dewpoint Depression Visibility Wind Speed Wind Dir Waves Ship Positions

Arklow Rock

Last reported at 2017-Feb-23 20:10 UTC. Time now 2017-Feb-23 21:01 UTC.
Position N 54°15' W 005°21'.

Length 90 m; draft 6 m.

Type: Cargo ship. MMSI: 246002000.

Date/timePositionNaut miles runAvg speedWind from/ knotsBaromVisibWave heightAir tempDewpointWater temp
2017-Feb-23 20:10N 54°15' W 005°21'711.7
2017-Feb-23 19:33N 54°22' W 005°20'1212.4
2017-Feb-23 18:33N 54°34' W 005°25'1010.3
2017-Feb-23 17:33N 54°42' W 005°35'1010.2
2017-Feb-23 16:33N 54°39' W 005°52'2 1.8
2017-Feb-23 15:32N 54°37' W 005°54'0 0.0
2017-Feb-23 14:23N 54°37' W 005°54'0 0.0
2017-Feb-23 13:17N 54°37' W 005°54'0 0.0
2017-Feb-23 12:32N 54°37' W 005°54'0 0.0
2017-Feb-23 11:32N 54°37' W 005°54'0 0.0
2017-Feb-23 10:29N 54°37' W 005°54'0 0.0
2017-Feb-23 09:26N 54°37' W 005°54'0 0.0
2017-Feb-23 08:11N 54°37' W 005°54'0 0.0
2017-Feb-23 07:33N 54°37' W 005°54'0 0.0
2017-Feb-23 06:33N 54°37' W 005°54'1 0.5
2017-Feb-23 05:32N 54°37' W 005°54'0 0.3
2017-Feb-23 04:28N 54°37' W 005°55'0 0.0
2017-Feb-23 03:33N 54°37' W 005°55'0 0.0
2017-Feb-23 02:27N 54°37' W 005°55'0 0.0
2017-Feb-22 22:24N 54°37' W 005°55'0 0.0
2017-Feb-22 21:30N 54°37' W 005°55'0 0.0
2017-Feb-22 18:30N 54°37' W 005°55'0 0.0
2017-Feb-22 16:29N 54°37' W 005°55'0 0.0
2017-Feb-22 15:32N 54°37' W 005°55'0 0.0
2017-Feb-22 14:22N 54°37' W 005°55'0 0.0
2017-Feb-22 13:33N 54°37' W 005°55'0 0.0
2017-Feb-22 12:32N 54°37' W 005°55'0 0.0
2017-Feb-22 11:30N 54°37' W 005°55'0 0.0
2017-Feb-22 10:31N 54°37' W 005°55'0 0.0
2017-Feb-22 09:32N 54°37' W 005°55'0 0.0
2017-Feb-22 08:14N 54°37' W 005°55'0 0.0
2017-Feb-22 07:29N 54°37' W 005°55'0 0.0
2017-Feb-22 06:31N 54°37' W 005°55'0 0.0
2017-Feb-22 05:33N 54°37' W 005°55'0 0.0
2017-Feb-22 04:32N 54°37' W 005°55'6 6.0
2017-Feb-22 03:34N 54°41' W 005°48'1110.8
2017-Feb-22 02:33N 54°43' W 005°30'1111.3
2017-Feb-22 01:33N 54°32' W 005°24'1211.9
2017-Feb-22 00:33N 54°21' W 005°20'1211.9
2017-Feb-21 23:33N 54°09' W 005°21'16510.1
2017-Feb-21 07:17N 51°27' W 004°27'2211.5
2017-Feb-21 05:23N 51°24' W 003°52'1112.7
2017-Feb-21 04:33N 51°23' W 003°35'2110.7
2017-Feb-21 02:33N 51°29' W 003°03'6 5.5
2017-Feb-21 01:33N 51°34' W 002°58'0 0.1
2017-Feb-21 00:19N 51°34' W 002°58'0 0.0
2017-Feb-20 23:19N 51°34' W 002°58'0 0.0
2017-Feb-20 22:31N 51°34' W 002°58'0 0.0
2017-Feb-20 21:31N 51°34' W 002°58'0 0.0
2017-Feb-20 19:31N 51°34' W 002°58'0 0.0
2017-Feb-19 00:03N 51°34' W 002°58'0 0.4
2017-Feb-18 23:32N 51°34' W 002°58'3 2.9
2017-Feb-18 22:33N 51°31' W 002°59'21 9.6
2017-Feb-18 20:23N 51°16' W 003°23'36 3.7
2017-Feb-18 10:33N 51°11' W 004°20'1212.4
2017-Feb-18 09:33N 51°04' W 004°36'1212.5
2017-Feb-18 08:33N 50°56' W 004°50'1212.2
2017-Feb-18 07:33N 50°47' W 005°04'1212.0
2017-Feb-18 06:33N 50°39' W 005°19'1211.8
2017-Feb-18 05:33N 50°31' W 005°32'1211.7
2017-Feb-18 04:33N 50°24' W 005°46'1510.7
2017-Feb-18 03:11N 50°09' W 005°52'55 9.4
2017-Feb-17 21:22N 50°02' W 004°27'911.1
2017-Feb-17 20:33N 50°05' W 004°14'1111.4
2017-Feb-17 19:33N 50°08' W 003°56'1212.3
2017-Feb-17 18:33N 50°10' W 003°38'1312.6
2017-Feb-17 17:33N 50°12' W 003°18'1312.6
2017-Feb-17 16:33N 50°14' W 002°59'1212.3
2017-Feb-17 15:33N 50°16' W 002°40'59 9.9
2017-Feb-17 09:32N 50°25' W 001°08'1711.9
2017-Feb-17 08:04N 50°28' W 000°41'1313.0
2017-Feb-17 07:05N 50°30' W 000°21'712.8
2017-Feb-17 06:33N 50°31' W 000°10'1212.6
2017-Feb-17 05:33N 50°34' E 000°09'4511.2
2017-Feb-17 01:33N 50°56' E 001°11'1211.9
2017-Feb-17 00:33N 51°03' E 001°25'1414.2
2017-Feb-16 23:33N 51°12' E 001°42'1413.7
2017-Feb-16 22:33N 51°24' E 001°54'1212.5
2017-Feb-16 21:33N 51°34' E 002°06'1211.6
2017-Feb-16 20:33N 51°43' E 002°19'1110.7
2017-Feb-16 19:32N 51°51' E 002°31'6210.3
2017-Feb-16 13:29N 52°24' E 003°56'1112.0
2017-Feb-16 12:33N 52°27' E 004°14'1110.8
2017-Feb-16 11:34N 52°28' E 004°31'3 2.9
2017-Feb-16 10:29N 52°28' E 004°36'0 0.0
2017-Feb-16 09:31N 52°28' E 004°36'0 0.0
2017-Feb-16 08:31N 52°28' E 004°36'0 0.0
2017-Feb-16 07:31N 52°28' E 004°36'0 0.0
2017-Feb-16 06:31N 52°28' E 004°36'0 0.0
2017-Feb-16 05:31N 52°28' E 004°36'0 0.0
2017-Feb-16 04:31N 52°28' E 004°36'0 0.0
2017-Feb-16 03:31N 52°28' E 004°36'0 0.0
2017-Feb-16 02:31N 52°28' E 004°36'0 0.0
2017-Feb-16 01:32N 52°28' E 004°36'0 0.0
2017-Feb-16 00:29N 52°28' E 004°36'0 0.0
2017-Feb-15 23:32N 52°28' E 004°36'0 0.0
2017-Feb-15 22:32N 52°28' E 004°36'0 0.0
2017-Feb-15 21:32N 52°28' E 004°36'0 0.0
2017-Feb-15 20:32N 52°28' E 004°36'0 0.0
2017-Feb-15 19:31N 52°28' E 004°36'0 0.0
2017-Feb-15 18:28N 52°28' E 004°36'0 0.0
2017-Feb-15 17:32N 52°28' E 004°36'0 0.0
2017-Feb-15 16:32N 52°28' E 004°36'0 0.0
2017-Feb-15 15:28N 52°28' E 004°36'0 0.0
2017-Feb-15 14:31N 52°28' E 004°36'0 0.0
2017-Feb-15 13:30N 52°28' E 004°36'0 0.0
2017-Feb-15 12:32N 52°28' E 004°36'0 0.0
2017-Feb-15 11:31N 52°28' E 004°36'0 0.0
2017-Feb-15 10:33N 52°28' E 004°36'0 0.0
2017-Feb-15 09:33N 52°28' E 004°36'0 0.0
2017-Feb-15 08:33N 52°28' E 004°36'0 0.0
2017-Feb-15 07:33N 52°28' E 004°36'0 0.0
2017-Feb-15 06:32N 52°28' E 004°36'0 0.0
2017-Feb-15 05:32N 52°28' E 004°36'0 0.0
2017-Feb-15 04:32N 52°28' E 004°36'0 0.0
2017-Feb-15 03:31N 52°28' E 004°36'0 0.0
2017-Feb-15 02:33N 52°28' E 004°36'0 0.0
2017-Feb-15 01:33N 52°28' E 004°36'0 0.0
2017-Feb-15 00:32N 52°28' E 004°36'0 0.0
2017-Feb-14 23:32N 52°28' E 004°36'0 0.0
2017-Feb-14 22:32N 52°28' E 004°36'0 0.0
2017-Feb-14 21:32N 52°28' E 004°36'0 0.0
2017-Feb-14 20:32N 52°28' E 004°36'0 0.0
2017-Feb-14 19:29N 52°28' E 004°36'0 0.0
2017-Feb-14 18:32N 52°28' E 004°36'0 0.0
2017-Feb-14 17:33N 52°28' E 004°36'0 0.0
2017-Feb-14 16:32N 52°28' E 004°36'0 0.0
2017-Feb-14 15:32N 52°28' E 004°36'0 0.0
2017-Feb-14 14:33N 52°28' E 004°36'0 0.5
2017-Feb-14 13:33N 52°28' E 004°36'8 8.1
2017-Feb-14 12:34N 52°25' E 004°49'0 0.2
2017-Feb-14 11:32N 52°25' E 004°49'0 0.0
2017-Feb-14 10:32N 52°25' E 004°49'0 0.0
2017-Feb-14 09:32N 52°25' E 004°49'0 0.0
2017-Feb-14 08:32N 52°25' E 004°49'0 0.0
2017-Feb-14 07:32N 52°25' E 004°49'0 0.0
2017-Feb-14 06:32N 52°25' E 004°49'0 0.0
2017-Feb-14 05:32N 52°25' E 004°49'0 0.0
2017-Feb-14 04:32N 52°25' E 004°49'0 0.0
2017-Feb-14 03:32N 52°25' E 004°49'0 0.0
2017-Feb-14 02:32N 52°25' E 004°49'0 0.0
2017-Feb-14 01:32N 52°25' E 004°49'0 0.0
2017-Feb-14 00:32N 52°25' E 004°49'0 0.0
2017-Feb-13 23:32N 52°25' E 004°49'0 0.0
2017-Feb-13 22:32N 52°25' E 004°49'0 0.0
2017-Feb-13 21:32N 52°25' E 004°49'0 0.0
2017-Feb-13 20:32N 52°25' E 004°49'  
Track history (hours):
 
Tides and Currents Weather Stations Pressure Air Temp Water Temp Dewpoint Dewpoint Depression Visibility Wind Speed Wind Dir Waves Ship Positions

Arklow Rock

Last reported at 2017-Feb-23 20:10 UTC. Time now 2017-Feb-23 21:01 UTC.
Position N 54°15' W 005°21'.

Length 90 m; draft 6 m.

Type: Cargo ship. MMSI: 246002000.

Date/timePositionNaut miles runAvg speedWind from/ knotsBaromVisibWave heightAir tempDewpointWater temp
2017-Feb-23 20:10N 54°15' W 005°21'711.7
2017-Feb-23 19:33N 54°22' W 005°20'1212.4
2017-Feb-23 18:33N 54°34' W 005°25'1010.3
2017-Feb-23 17:33N 54°42' W 005°35'1010.2
2017-Feb-23 16:33N 54°39' W 005°52'2 1.8
2017-Feb-23 15:32N 54°37' W 005°54'0 0.0
2017-Feb-23 14:23N 54°37' W 005°54'0 0.0
2017-Feb-23 13:17N 54°37' W 005°54'0 0.0
2017-Feb-23 12:32N 54°37' W 005°54'0 0.0
2017-Feb-23 11:32N 54°37' W 005°54'0 0.0
2017-Feb-23 10:29N 54°37' W 005°54'0 0.0
2017-Feb-23 09:26N 54°37' W 005°54'0 0.0
2017-Feb-23 08:11N 54°37' W 005°54'0 0.0
2017-Feb-23 07:33N 54°37' W 005°54'0 0.0
2017-Feb-23 06:33N 54°37' W 005°54'1 0.5
2017-Feb-23 05:32N 54°37' W 005°54'0 0.3
2017-Feb-23 04:28N 54°37' W 005°55'0 0.0
2017-Feb-23 03:33N 54°37' W 005°55'0 0.0
2017-Feb-23 02:27N 54°37' W 005°55'0 0.0
2017-Feb-22 22:24N 54°37' W 005°55'0 0.0
2017-Feb-22 21:30N 54°37' W 005°55'0 0.0
2017-Feb-22 18:30N 54°37' W 005°55'0 0.0
2017-Feb-22 16:29N 54°37' W 005°55'0 0.0
2017-Feb-22 15:32N 54°37' W 005°55'0 0.0
2017-Feb-22 14:22N 54°37' W 005°55'0 0.0
2017-Feb-22 13:33N 54°37' W 005°55'0 0.0
2017-Feb-22 12:32N 54°37' W 005°55'0 0.0
2017-Feb-22 11:30N 54°37' W 005°55'0 0.0
2017-Feb-22 10:31N 54°37' W 005°55'0 0.0
2017-Feb-22 09:32N 54°37' W 005°55'0 0.0
2017-Feb-22 08:14N 54°37' W 005°55'0 0.0
2017-Feb-22 07:29N 54°37' W 005°55'0 0.0
2017-Feb-22 06:31N 54°37' W 005°55'0 0.0
2017-Feb-22 05:33N 54°37' W 005°55'0 0.0
2017-Feb-22 04:32N 54°37' W 005°55'6 6.0
2017-Feb-22 03:34N 54°41' W 005°48'1110.8
2017-Feb-22 02:33N 54°43' W 005°30'1111.3
2017-Feb-22 01:33N 54°32' W 005°24'1211.9
2017-Feb-22 00:33N 54°21' W 005°20'1211.9
2017-Feb-21 23:33N 54°09' W 005°21'16510.1
2017-Feb-21 07:17N 51°27' W 004°27'2211.5
2017-Feb-21 05:23N 51°24' W 003°52'1112.7
2017-Feb-21 04:33N 51°23' W 003°35'2110.7
2017-Feb-21 02:33N 51°29' W 003°03'6 5.5
2017-Feb-21 01:33N 51°34' W 002°58'0 0.1
2017-Feb-21 00:19N 51°34' W 002°58'0 0.0
2017-Feb-20 23:19N 51°34' W 002°58'0 0.0
2017-Feb-20 22:31N 51°34' W 002°58'0 0.0
2017-Feb-20 21:31N 51°34' W 002°58'0 0.0
2017-Feb-20 19:31N 51°34' W 002°58'0 0.0
2017-Feb-19 00:03N 51°34' W 002°58'0 0.4
2017-Feb-18 23:32N 51°34' W 002°58'3 2.9
2017-Feb-18 22:33N 51°31' W 002°59'21 9.6
2017-Feb-18 20:23N 51°16' W 003°23'36 3.7
2017-Feb-18 10:33N 51°11' W 004°20'1212.4
2017-Feb-18 09:33N 51°04' W 004°36'1212.5
2017-Feb-18 08:33N 50°56' W 004°50'1212.2
2017-Feb-18 07:33N 50°47' W 005°04'1212.0
2017-Feb-18 06:33N 50°39' W 005°19'1211.8
2017-Feb-18 05:33N 50°31' W 005°32'1211.7
2017-Feb-18 04:33N 50°24' W 005°46'1510.7
2017-Feb-18 03:11N 50°09' W 005°52'55 9.4
2017-Feb-17 21:22N 50°02' W 004°27'911.1
2017-Feb-17 20:33N 50°05' W 004°14'1111.4
2017-Feb-17 19:33N 50°08' W 003°56'1212.3
2017-Feb-17 18:33N 50°10' W 003°38'1312.6
2017-Feb-17 17:33N 50°12' W 003°18'1312.6
2017-Feb-17 16:33N 50°14' W 002°59'1212.3
2017-Feb-17 15:33N 50°16' W 002°40'59 9.9
2017-Feb-17 09:32N 50°25' W 001°08'1711.9
2017-Feb-17 08:04N 50°28' W 000°41'1313.0
2017-Feb-17 07:05N 50°30' W 000°21'712.8
2017-Feb-17 06:33N 50°31' W 000°10'1212.6
2017-Feb-17 05:33N 50°34' E 000°09'4511.2
2017-Feb-17 01:33N 50°56' E 001°11'1211.9
2017-Feb-17 00:33N 51°03' E 001°25'1414.2
2017-Feb-16 23:33N 51°12' E 001°42'1413.7
2017-Feb-16 22:33N 51°24' E 001°54'1212.5
2017-Feb-16 21:33N 51°34' E 002°06'1211.6
2017-Feb-16 20:33N 51°43' E 002°19'1110.7
2017-Feb-16 19:32N 51°51' E 002°31'6210.3
2017-Feb-16 13:29N 52°24' E 003°56'1112.0
2017-Feb-16 12:33N 52°27' E 004°14'1110.8
2017-Feb-16 11:34N 52°28' E 004°31'3 2.9
2017-Feb-16 10:29N 52°28' E 004°36'0 0.0
2017-Feb-16 09:31N 52°28' E 004°36'0 0.0
2017-Feb-16 08:31N 52°28' E 004°36'0 0.0
2017-Feb-16 07:31N 52°28' E 004°36'0 0.0
2017-Feb-16 06:31N 52°28' E 004°36'0 0.0
2017-Feb-16 05:31N 52°28' E 004°36'0 0.0
2017-Feb-16 04:31N 52°28' E 004°36'0 0.0
2017-Feb-16 03:31N 52°28' E 004°36'0 0.0
2017-Feb-16 02:31N 52°28' E 004°36'0 0.0
2017-Feb-16 01:32N 52°28' E 004°36'0 0.0
2017-Feb-16 00:29N 52°28' E 004°36'0 0.0
2017-Feb-15 23:32N 52°28' E 004°36'0 0.0
2017-Feb-15 22:32N 52°28' E 004°36'0 0.0
2017-Feb-15 21:32N 52°28' E 004°36'0 0.0
2017-Feb-15 20:32N 52°28' E 004°36'0 0.0
2017-Feb-15 19:31N 52°28' E 004°36'0 0.0
2017-Feb-15 18:28N 52°28' E 004°36'0 0.0
2017-Feb-15 17:32N 52°28' E 004°36'0 0.0
2017-Feb-15 16:32N 52°28' E 004°36'0 0.0
2017-Feb-15 15:28N 52°28' E 004°36'0 0.0
2017-Feb-15 14:31N 52°28' E 004°36'0 0.0
2017-Feb-15 13:30N 52°28' E 004°36'0 0.0
2017-Feb-15 12:32N 52°28' E 004°36'0 0.0
2017-Feb-15 11:31N 52°28' E 004°36'0 0.0
2017-Feb-15 10:33N 52°28' E 004°36'0 0.0
2017-Feb-15 09:33N 52°28' E 004°36'0 0.0
2017-Feb-15 08:33N 52°28' E 004°36'0 0.0
2017-Feb-15 07:33N 52°28' E 004°36'0 0.0
2017-Feb-15 06:32N 52°28' E 004°36'0 0.0
2017-Feb-15 05:32N 52°28' E 004°36'0 0.0
2017-Feb-15 04:32N 52°28' E 004°36'0 0.0
2017-Feb-15 03:31N 52°28' E 004°36'0 0.0
2017-Feb-15 02:33N 52°28' E 004°36'0 0.0
2017-Feb-15 01:33N 52°28' E 004°36'0 0.0
2017-Feb-15 00:32N 52°28' E 004°36'0 0.0
2017-Feb-14 23:32N 52°28' E 004°36'0 0.0
2017-Feb-14 22:32N 52°28' E 004°36'0 0.0
2017-Feb-14 21:32N 52°28' E 004°36'0 0.0
2017-Feb-14 20:32N 52°28' E 004°36'0 0.0
2017-Feb-14 19:29N 52°28' E 004°36'0 0.0
2017-Feb-14 18:32N 52°28' E 004°36'0 0.0
2017-Feb-14 17:33N 52°28' E 004°36'0 0.0
2017-Feb-14 16:32N 52°28' E 004°36'0 0.0
2017-Feb-14 15:32N 52°28' E 004°36'0 0.0
2017-Feb-14 14:33N 52°28' E 004°36'0 0.5
2017-Feb-14 13:33N 52°28' E 004°36'8 8.1
2017-Feb-14 12:34N 52°25' E 004°49'0 0.2
2017-Feb-14 11:32N 52°25' E 004°49'0 0.0
2017-Feb-14 10:32N 52°25' E 004°49'0 0.0
2017-Feb-14 09:32N 52°25' E 004°49'0 0.0
2017-Feb-14 08:32N 52°25' E 004°49'0 0.0
2017-Feb-14 07:32N 52°25' E 004°49'0 0.0
2017-Feb-14 06:32N 52°25' E 004°49'0 0.0
2017-Feb-14 05:32N 52°25' E 004°49'0 0.0
2017-Feb-14 04:32N 52°25' E 004°49'0 0.0
2017-Feb-14 03:32N 52°25' E 004°49'0 0.0
2017-Feb-14 02:32N 52°25' E 004°49'0 0.0
2017-Feb-14 01:32N 52°25' E 004°49'0 0.0
2017-Feb-14 00:32N 52°25' E 004°49'0 0.0
2017-Feb-13 23:32N 52°25' E 004°49'0 0.0
2017-Feb-13 22:32N 52°25' E 004°49'0 0.0
2017-Feb-13 21:32N 52°25' E 004°49'0 0.0
2017-Feb-13 20:32N 52°25' E 004°49'  

Dump ship's entire track history